createdAt,value
2019-02-25T00:00:33.771Z,99757.31
2019-02-25T00:05:37.308Z,99760.23
2019-02-25T00:10:40.718Z,99759.55
2019-02-25T00:15:44.112Z,99761.67
2019-02-25T00:20:47.689Z,99770.17
2019-02-25T00:25:51.169Z,99780.14
2019-02-25T00:30:54.556Z,99782.71
2019-02-25T00:35:59.105Z,99779.61
2019-02-25T00:41:02.519Z,99787.08
2019-02-25T00:46:05.966Z,99805.65
2019-02-25T00:51:09.416Z,99807.56
2019-02-25T00:56:12.896Z,99810.48
2019-02-25T01:01:17.419Z,99812.89
2019-02-25T01:06:20.824Z,99807.09
2019-02-25T01:11:24.319Z,99800.69
2019-02-25T01:16:28.246Z,99802.87
2019-02-25T01:21:31.976Z,99801.83
2019-02-25T01:26:35.482Z,99810.05
2019-02-25T01:31:38.992Z,99796.06
2019-02-25T01:36:42.374Z,99777.42
2019-02-25T01:41:45.879Z,99769.89
2019-02-25T01:46:49.316Z,99774.59
2019-02-25T01:51:52.704Z,99772.42
2019-02-25T01:56:57.172Z,99773.22
2019-02-25T02:02:00.568Z,99776.14
2019-02-25T02:07:04.059Z,99778.41
2019-02-25T02:12:07.521Z,99778.34
2019-02-25T02:17:11.051Z,99777.84
2019-02-25T02:22:14.782Z,99772.93
2019-02-25T02:27:18.235Z,99776.14
2019-02-25T02:32:21.756Z,99774.77
2019-02-25T02:37:25.381Z,99771.02
2019-02-25T02:42:29.008Z,99770.37
2019-02-25T02:47:44.558Z,99760.76
2019-02-25T02:52:47.993Z,99756.23
2019-02-25T02:57:51.710Z,99743.20
2019-02-25T03:02:55.096Z,99751.95
2019-02-25T03:07:58.531Z,99758.77
2019-02-25T03:13:02.192Z,99736.33
2019-02-25T03:18:05.648Z,99744.69
2019-02-25T03:23:09.094Z,99744.77
2019-02-25T03:28:12.580Z,99751.22
2019-02-25T03:33:15.997Z,99759.40
2019-02-25T03:38:19.440Z,99762.58
2019-02-25T03:43:22.845Z,99755.70
2019-02-25T03:48:26.220Z,99767.94
2019-02-25T03:53:29.661Z,99769.42
2019-02-25T03:58:33.116Z,99774.79
2019-02-25T04:03:36.763Z,99763.79
2019-02-25T04:08:40.171Z,99758.88
2019-02-25T04:13:43.605Z,99766.34
2019-02-25T04:18:47.119Z,99759.06
2019-02-25T04:23:50.854Z,99754.33
2019-02-25T04:28:54.484Z,99751.97
2019-02-25T04:33:57.956Z,99759.31
2019-02-25T04:39:01.348Z,99760.56
2019-02-25T04:44:04.835Z,99755.96
2019-02-25T04:49:08.212Z,99741.03
2019-02-25T04:54:11.708Z,99748.86
2019-02-25T04:59:15.113Z,99748.92
2019-02-25T05:04:18.719Z,99761.27
2019-02-25T05:09:22.122Z,99758.88
2019-02-25T05:14:25.556Z,99758.84
2019-02-25T05:19:28.985Z,99764.95
2019-02-25T05:24:32.476Z,99765.02
2019-02-25T05:29:35.885Z,99768.20
2019-02-25T05:34:39.294Z,99748.62
2019-02-25T05:39:42.797Z,99750.66
2019-02-25T05:44:46.214Z,99739.35
2019-02-25T05:49:49.598Z,99736.22
2019-02-25T05:54:53.071Z,99745.94
2019-02-25T05:59:56.494Z,99743.86
2019-02-25T06:05:00.200Z,99752.20
2019-02-25T06:10:03.520Z,99751.08
2019-02-25T06:15:07.873Z,99744.20
2019-02-25T06:20:11.755Z,99744.19
2019-02-25T06:25:15.434Z,99748.23
2019-02-25T06:30:18.854Z,99750.49
2019-02-25T06:35:23.333Z,99741.75
2019-02-25T06:40:26.743Z,99753.88
2019-02-25T06:45:31.178Z,99762.54
2019-02-25T06:50:33.741Z,99750.19
2019-02-25T06:55:37.149Z,99753.93
2019-02-25T07:00:43.734Z,99731.83
2019-02-25T07:05:59.179Z,99740.85
2019-02-25T07:11:07.732Z,99736.83
2019-02-25T07:16:51.123Z,99739.33
2019-02-25T07:22:03.480Z,99744.19
2019-02-25T07:27:11.085Z,99742.09
2019-02-25T07:32:20.580Z,99755.91
2019-02-25T07:37:29.146Z,99755.98
2019-02-25T07:44:43.862Z,99757.08
2019-02-25T07:50:22.351Z,99757.13
2019-02-25T07:55:30.808Z,99753.04
2019-02-25T08:00:38.395Z,99762.25
2019-02-25T08:05:48.910Z,99760.12
2019-02-25T08:10:57.538Z,99755.67
2019-02-25T08:16:08.052Z,99752.00
2019-02-25T08:21:22.447Z,99751.29
2019-02-25T08:27:03.949Z,99750.80
2019-02-25T08:32:22.351Z,99750.77
2019-02-25T08:37:35.514Z,99751.10
2019-02-25T08:42:41.884Z,99754.02
2019-02-25T08:47:50.225Z,99756.20
2019-02-25T08:52:53.628Z,99762.38
2019-02-25T08:57:57.255Z,99748.91
2019-02-25T09:03:00.671Z,99750.83
2019-02-25T09:08:04.124Z,99736.50
2019-02-25T09:13:07.500Z,99736.01
2019-02-25T09:18:11.021Z,99740.46
2019-02-25T09:23:14.425Z,99739.48
2019-02-25T09:28:17.805Z,99741.52
2019-02-25T09:33:21.282Z,99737.98
2019-02-25T09:38:24.690Z,99730.28
2019-02-25T09:43:28.169Z,99729.41
2019-02-25T09:48:31.628Z,99728.92
2019-02-25T09:53:35.097Z,99726.20
2019-02-25T09:58:38.452Z,99720.90
2019-02-25T10:03:41.996Z,99717.64
2019-02-25T10:08:46.549Z,99721.13
2019-02-25T10:13:48.953Z,99717.49
2019-02-25T10:18:52.356Z,99711.17
2019-02-25T10:23:56.032Z,99705.86
2019-02-25T10:28:59.582Z,99691.27
2019-02-25T10:34:04.073Z,99685.00
2019-02-25T10:39:12.901Z,99682.72
2019-02-25T10:44:14.480Z,99689.08
2019-02-25T10:49:17.887Z,99679.17
2019-02-25T10:54:23.155Z,99686.94
2019-02-25T10:59:24.899Z,99683.31
2019-02-25T11:04:28.341Z,99672.20
2019-02-25T11:09:42.421Z,99660.20
2019-02-25T11:14:45.336Z,99652.58
2019-02-25T11:19:48.815Z,99648.14
2019-02-25T11:24:53.510Z,99647.86
2019-02-25T11:29:55.639Z,99648.55
2019-02-25T11:35:01.170Z,99630.53
2019-02-25T11:40:04.335Z,99610.42
2019-02-25T11:45:06.917Z,99620.72
2019-02-25T11:50:11.869Z,99606.23
2019-02-25T11:55:15.404Z,99608.06
2019-02-25T12:00:20.287Z,99583.63
2019-02-25T12:05:23.700Z,99578.73
2019-02-25T12:10:27.260Z,99584.42
2019-02-25T12:15:30.744Z,99580.27
2019-02-25T12:20:34.144Z,99570.61
2019-02-25T12:25:37.565Z,99562.58
2019-02-25T12:30:40.968Z,99552.97
2019-02-25T12:35:44.380Z,99552.11
2019-02-25T12:40:47.762Z,99545.18
2019-02-25T12:45:51.242Z,99531.77
2019-02-25T12:50:54.662Z,99523.16
2019-02-25T12:55:59.159Z,99521.86
2019-02-25T13:01:02.556Z,99511.98
2019-02-25T13:06:05.997Z,99499.22
2019-02-25T13:11:09.645Z,99500.00
2019-02-25T13:16:13.060Z,99493.92
2019-02-25T13:21:16.520Z,99482.64
2019-02-25T13:26:19.931Z,99476.91
2019-02-25T13:31:23.537Z,99467.58
2019-02-25T13:36:26.936Z,99454.63
2019-02-25T13:41:30.443Z,99446.13
2019-02-25T13:46:33.965Z,99433.56
2019-02-25T13:51:37.389Z,99424.24
2019-02-25T13:56:42.865Z,99405.10
2019-02-25T14:01:46.346Z,99414.47
2019-02-25T14:06:49.787Z,99413.87
2019-02-25T14:11:53.194Z,99404.85
2019-02-25T14:16:56.656Z,99403.17
2019-02-25T14:22:00.063Z,99393.50
2019-02-25T14:27:03.680Z,99394.38
2019-02-25T14:32:07.204Z,99393.72
2019-02-25T14:37:10.677Z,99395.41
2019-02-25T14:42:15.924Z,99389.91
2019-02-25T14:47:22.485Z,99386.17
2019-02-25T14:52:21.958Z,99377.55
2019-02-25T14:57:26.495Z,99381.93
2019-02-25T15:02:28.266Z,99371.27
2019-02-25T15:07:32.417Z,99380.67
2019-02-25T15:12:35.902Z,99374.34
2019-02-25T15:17:39.943Z,99377.39
2019-02-25T15:22:43.537Z,99369.76
2019-02-25T15:27:47.103Z,99374.58
2019-02-25T15:32:55.805Z,99370.95
2019-02-25T15:37:55.501Z,99372.67
2019-02-25T15:43:04.143Z,99374.77
2019-02-25T15:48:13.076Z,99374.38
2019-02-25T15:53:16.114Z,99365.43
2019-02-25T15:58:18.801Z,99366.63
2019-02-25T16:03:22.366Z,99381.16
2019-02-25T16:08:26.479Z,99386.70
2019-02-25T16:13:29.755Z,99384.49
2019-02-25T16:18:33.246Z,99375.73
2019-02-25T16:23:40.580Z,99376.78
2019-02-25T16:28:40.563Z,99369.46
2019-02-25T16:33:44.180Z,99373.25
2019-02-25T16:38:51.335Z,99381.86
2019-02-25T16:43:51.405Z,99379.91
2019-02-25T16:48:55.478Z,99371.84
2019-02-25T16:53:58.400Z,99385.23
2019-02-25T16:59:10.634Z,99388.50
2019-02-25T17:04:05.427Z,99392.99
2019-02-25T17:09:09.871Z,99391.45
2019-02-25T17:14:12.533Z,99399.38
2019-02-25T17:19:16.012Z,99409.82
2019-02-25T17:24:23.702Z,99411.11
2019-02-25T17:29:24.519Z,99411.61
2019-02-25T17:34:26.453Z,99402.66
2019-02-25T17:39:31.174Z,99418.08
2019-02-25T17:44:34.866Z,99419.44
2019-02-25T17:49:38.059Z,99409.05
2019-02-25T17:54:40.583Z,99401.32
2019-02-25T17:59:45.932Z,99411.81
2019-02-25T18:04:49.254Z,99400.49
2019-02-25T18:09:52.108Z,99414.16
2019-02-25T18:14:56.503Z,99425.35
2019-02-25T18:20:00.159Z,99423.33
2019-02-25T18:25:04.979Z,99430.37
2019-02-25T18:30:07.333Z,99428.36
2019-02-25T18:35:12.230Z,99430.31
2019-02-25T18:40:16.196Z,99432.23
2019-02-25T18:45:18.440Z,99421.47
2019-02-25T18:50:22.225Z,99424.13
2019-02-25T18:55:26.958Z,99426.80
2019-02-25T19:00:33.550Z,99427.72
2019-02-25T19:05:37.124Z,99429.52
2019-02-25T19:10:43.443Z,99429.51
2019-02-25T19:15:44.108Z,99424.41
2019-02-25T19:20:48.257Z,99432.64
2019-02-25T19:25:51.315Z,99435.68
2019-02-25T19:30:54.859Z,99442.19
2019-02-25T19:35:58.795Z,99442.19
2019-02-25T19:41:01.903Z,99451.28
2019-02-25T19:46:06.316Z,99455.16
2019-02-25T19:51:08.784Z,99453.00
2019-02-25T19:56:12.454Z,99456.88
2019-02-25T20:01:15.964Z,99459.00
2019-02-25T20:06:21.587Z,99456.84
2019-02-25T20:11:22.847Z,99462.43
2019-02-25T20:16:29.558Z,99461.05
2019-02-25T20:21:31.055Z,99467.56
2019-02-25T20:26:33.579Z,99462.78
2019-02-25T20:31:37.148Z,99459.75
2019-02-25T20:36:40.553Z,99450.25
2019-02-25T20:41:45.905Z,99452.34
2019-02-25T20:46:50.687Z,99453.55
2019-02-25T20:51:52.323Z,99452.25
2019-02-25T20:56:55.468Z,99458.25
2019-02-25T21:01:58.305Z,99447.38
2019-02-25T21:07:02.610Z,99443.05
2019-02-25T21:12:05.428Z,99460.97
2019-02-25T21:17:09.033Z,99467.41
2019-02-25T21:22:12.539Z,99460.87
2019-02-25T21:27:16.021Z,99451.34
2019-02-25T21:32:19.895Z,99455.58
2019-02-25T21:37:24.924Z,99448.70
2019-02-25T21:42:26.888Z,99443.84
2019-02-25T21:47:30.926Z,99435.14
2019-02-25T21:52:35.004Z,99447.09
2019-02-25T21:57:37.715Z,99440.58
2019-02-25T22:02:43.513Z,99437.50
2019-02-25T22:07:45.213Z,99436.56
2019-02-25T22:12:48.978Z,99443.75
2019-02-25T22:17:53.546Z,99458.68
2019-02-25T22:22:58.294Z,99465.55
2019-02-25T22:28:01.640Z,99462.57
2019-02-25T22:33:04.895Z,99464.22
2019-02-25T22:38:06.680Z,99466.66
2019-02-25T22:43:12.059Z,99461.08
2019-02-25T22:48:14.106Z,99463.46
2019-02-25T22:53:17.063Z,99460.83
2019-02-25T22:58:20.660Z,99458.60
2019-02-25T23:03:25.653Z,99449.30
2019-02-25T23:08:27.552Z,99451.89
2019-02-25T23:13:31.986Z,99457.02
2019-02-25T23:18:34.411Z,99460.69
2019-02-25T23:23:39.917Z,99465.31
2019-02-25T23:28:41.232Z,99467.00
2019-02-25T23:33:46.551Z,99472.41
2019-02-25T23:38:48.152Z,99457.83
2019-02-25T23:43:51.561Z,99459.83
2019-02-25T23:48:54.975Z,99453.47
2019-02-25T23:53:58.498Z,99451.19
2019-02-25T23:59:02.020Z,99443.30
